sensor_id;sensor_type;location;lat;lon;timestamp;pressure;altitude;pressure_sealevel;temperature;humidity
75008;BME280;63554;48.940;12.050;2023-04-25T00:00:54;96710.78;;;7.24;76.27
75008;BME280;63554;48.940;12.050;2023-04-25T00:04:58;96703.31;;;7.19;76.21
75008;BME280;63554;48.940;12.050;2023-04-25T00:09:02;96701.69;;;7.18;76.17
75008;BME280;63554;48.940;12.050;2023-04-25T00:13:08;96713.47;;;7.17;76.39
75008;BME280;63554;48.940;12.050;2023-04-25T00:17:12;96708.97;;;7.11;76.39
75008;BME280;63554;48.940;12.050;2023-04-25T00:21:15;96712.28;;;7.06;75.69
75008;BME280;63554;48.940;12.050;2023-04-25T00:25:20;96713.13;;;7.07;76.38
75008;BME280;63554;48.940;12.050;2023-04-25T00:29:23;96712.28;;;7.06;76.83
75008;BME280;63554;48.940;12.050;2023-04-25T00:33:26;96707.13;;;7.05;76.73
75008;BME280;63554;48.940;12.050;2023-04-25T00:37:29;96711.69;;;7.04;77.12
75008;BME280;63554;48.940;12.050;2023-04-25T00:41:33;96711.69;;;7.04;78.16
75008;BME280;63554;48.940;12.050;2023-04-25T00:45:38;96688.53;;;6.97;77.74
75008;BME280;63554;48.940;12.050;2023-04-25T00:49:41;96699.09;;;6.98;79.41
75008;BME280;63554;48.940;12.050;2023-04-25T00:53:45;96694.78;;;6.90;78.83
75008;BME280;63554;48.940;12.050;2023-04-25T00:57:49;96692.50;;;6.87;78.65
75008;BME280;63554;48.940;12.050;2023-04-25T01:01:52;96693.75;;;6.78;78.47
75008;BME280;63554;48.940;12.050;2023-04-25T01:05:55;96692.53;;;6.74;78.53
75008;BME280;63554;48.940;12.050;2023-04-25T01:09:58;96690.09;;;6.72;79.06
75008;BME280;63554;48.940;12.050;2023-04-25T01:14:02;96684.28;;;6.69;79.05
75008;BME280;63554;48.940;12.050;2023-04-25T01:18:05;96693.59;;;6.66;79.19
75008;BME280;63554;48.940;12.050;2023-04-25T01:22:10;96694.66;;;6.59;79.40
75008;BME280;63554;48.940;12.050;2023-04-25T01:26:12;96690.94;;;6.60;79.22
75008;BME280;63554;48.940;12.050;2023-04-25T01:30:15;96694.06;;;6.57;79.59
75008;BME280;63554;48.940;12.050;2023-04-25T01:34:18;96698.38;;;6.58;79.59
75008;BME280;63554;48.940;12.050;2023-04-25T01:38:23;96697.16;;;6.53;79.40
75008;BME280;63554;48.940;12.050;2023-04-25T01:42:26;96695.47;;;6.52;79.13
75008;BME280;63554;48.940;12.050;2023-04-25T01:46:29;96701.91;;;6.51;79.62
75008;BME280;63554;48.940;12.050;2023-04-25T01:50:32;96707.53;;;6.43;79.32
75008;BME280;63554;48.940;12.050;2023-04-25T01:54:36;96705.06;;;6.35;79.17
75008;BME280;63554;48.940;12.050;2023-04-25T01:58:39;96713.50;;;6.39;79.16
75008;BME280;63554;48.940;12.050;2023-04-25T02:02:41;96701.97;;;6.31;78.64
75008;BME280;63554;48.940;12.050;2023-04-25T02:06:44;96701.09;;;6.31;78.66
75008;BME280;63554;48.940;12.050;2023-04-25T02:10:48;96685.41;;;6.34;79.12
75008;BME280;63554;48.940;12.050;2023-04-25T02:14:51;96682.72;;;6.41;79.77
75008;BME280;63554;48.940;12.050;2023-04-25T02:18:54;96691.81;;;6.47;79.71
75008;BME280;63554;48.940;12.050;2023-04-25T02:22:56;96679.19;;;6.47;79.66
75008;BME280;63554;48.940;12.050;2023-04-25T02:27:00;96683.50;;;6.48;79.67
75008;BME280;63554;48.940;12.050;2023-04-25T02:31:04;96679.97;;;6.54;80.64
75008;BME280;63554;48.940;12.050;2023-04-25T02:35:07;96671.91;;;6.54;79.27
75008;BME280;63554;48.940;12.050;2023-04-25T02:39:10;96674.84;;;6.53;78.79
75008;BME280;63554;48.940;12.050;2023-04-25T02:43:14;96666.34;;;6.49;78.99
75008;BME280;63554;48.940;12.050;2023-04-25T02:47:17;96670.47;;;6.52;79.00
75008;BME280;63554;48.940;12.050;2023-04-25T02:51:20;96663.88;;;6.48;78.34
75008;BME280;63554;48.940;12.050;2023-04-25T02:55:22;96664.72;;;6.42;77.39
75008;BME280;63554;48.940;12.050;2023-04-25T02:59:29;96661.22;;;6.34;77.90
75008;BME280;63554;48.940;12.050;2023-04-25T03:03:32;96652.75;;;6.31;77.56
75008;BME280;63554;48.940;12.050;2023-04-25T03:07:35;96661.84;;;6.30;77.91
75008;BME280;63554;48.940;12.050;2023-04-25T03:11:38;96653.34;;;6.33;78.42
75008;BME280;63554;48.940;12.050;2023-04-25T03:15:43;96646.34;;;6.32;78.23
75008;BME280;63554;48.940;12.050;2023-04-25T03:19:45;96653.78;;;6.30;78.13
75008;BME280;63554;48.940;12.050;2023-04-25T03:23:48;96657.50;;;6.29;78.07
75008;BME280;63554;48.940;12.050;2023-04-25T03:27:51;96653.78;;;6.23;78.36
75008;BME280;63554;48.940;12.050;2023-04-25T03:31:55;96638.31;;;6.25;78.41
75008;BME280;63554;48.940;12.050;2023-04-25T03:35:58;96640.56;;;6.28;79.24
75008;BME280;63554;48.940;12.050;2023-04-25T03:40:00;96645.72;;;6.30;78.74
75008;BME280;63554;48.940;12.050;2023-04-25T03:44:04;96653.78;;;6.30;78.59
75008;BME280;63554;48.940;12.050;2023-04-25T03:48:08;96648.81;;;6.27;79.36
75008;BME280;63554;48.940;12.050;2023-04-25T03:52:10;96649.22;;;6.30;79.97
75008;BME280;63554;48.940;12.050;2023-04-25T03:56:13;96656.88;;;6.33;79.56
75008;BME280;63554;48.940;12.050;2023-04-25T04:00:17;96650.66;;;6.33;78.79
75008;BME280;63554;48.940;12.050;2023-04-25T04:04:21;96651.94;;;6.37;79.20
75008;BME280;63554;48.940;12.050;2023-04-25T04:08:24;96642.59;;;6.33;78.56
75008;BME280;63554;48.940;12.050;2023-04-25T04:12:26;96640.16;;;6.31;78.49
75008;BME280;63554;48.940;12.050;2023-04-25T04:16:29;96636.00;;;6.36;78.88
75008;BME280;63554;48.940;12.050;2023-04-25T04:20:36;96635.59;;;6.32;78.76
75008;BME280;63554;48.940;12.050;2023-04-25T04:24:38;96648.41;;;6.30;77.64
75008;BME280;63554;48.940;12.050;2023-04-25T04:28:41;96650.06;;;6.24;78.06
75008;BME280;63554;48.940;12.050;2023-04-25T04:32:44;96648.44;;;6.17;78.40
75008;BME280;63554;48.940;12.050;2023-04-25T04:36:50;96653.59;;;6.18;79.16
75008;BME280;63554;48.940;12.050;2023-04-25T04:40:53;96646.81;;;6.16;78.70
75008;BME280;63554;48.940;12.050;2023-04-25T04:44:56;96652.16;;;6.16;78.55
75008;BME280;63554;48.940;12.050;2023-04-25T04:49:00;96645.09;;;6.21;78.84
75008;BME280;63554;48.940;12.050;2023-04-25T04:53:04;96647.19;;;6.26;78.01
75008;BME280;63554;48.940;12.050;2023-04-25T04:57:07;96648.81;;;6.27;77.33
75008;BME280;63554;48.940;12.050;2023-04-25T05:01:09;96652.53;;;6.32;77.46
75008;BME280;63554;48.940;12.050;2023-04-25T05:05:13;96648.38;;;6.37;77.38
75008;BME280;63554;48.940;12.050;2023-04-25T05:09:17;96643.00;;;6.37;77.42
75008;BME280;63554;48.940;12.050;2023-04-25T05:13:20;96650.25;;;6.36;77.47
75008;BME280;63554;48.940;12.050;2023-04-25T05:17:23;96639.50;;;6.36;78.02
75008;BME280;63554;48.940;12.050;2023-04-25T05:21:25;96640.94;;;6.45;77.65
75008;BME280;63554;48.940;12.050;2023-04-25T05:25:30;96632.84;;;6.52;77.48
75008;BME280;63554;48.940;12.050;2023-04-25T05:29:32;96644.81;;;6.56;77.25
75008;BME280;63554;48.940;12.050;2023-04-25T05:33:36;96640.50;;;6.48;77.47
75008;BME280;63554;48.940;12.050;2023-04-25T05:37:39;96643.84;;;6.44;77.82
75008;BME280;63554;48.940;12.050;2023-04-25T05:41:43;96640.91;;;6.59;77.80
75008;BME280;63554;48.940;12.050;2023-04-25T05:45:45;96641.91;;;6.64;77.59
75008;BME280;63554;48.940;12.050;2023-04-25T05:49:48;96637.78;;;6.68;77.00
75008;BME280;63554;48.940;12.050;2023-04-25T05:53:51;96632.34;;;6.75;77.62
75008;BME280;63554;48.940;12.050;2023-04-25T05:57:55;96632.47;;;6.93;77.03
75008;BME280;63554;48.940;12.050;2023-04-25T06:02:00;96639.59;;;7.13;76.13
75008;BME280;63554;48.940;12.050;2023-04-25T06:06:03;96640.97;;;7.29;75.20
75008;BME280;63554;48.940;12.050;2023-04-25T06:10:08;96641.34;;;7.32;74.29
75008;BME280;63554;48.940;12.050;2023-04-25T06:14:13;96647.81;;;7.31;74.52
75008;BME280;63554;48.940;12.050;2023-04-25T06:18:16;96639.38;;;7.53;74.13
75008;BME280;63554;48.940;12.050;2023-04-25T06:22:19;96633.38;;;7.51;74.44
75008;BME280;63554;48.940;12.050;2023-04-25T06:26:21;96643.69;;;7.54;74.38
75008;BME280;63554;48.940;12.050;2023-04-25T06:30:25;96629.97;;;7.62;74.39
75008;BME280;63554;48.940;12.050;2023-04-25T06:34:28;96627.84;;;7.71;74.66
75008;BME280;63554;48.940;12.050;2023-04-25T06:38:31;96630.66;;;7.83;73.27
75008;BME280;63554;48.940;12.050;2023-04-25T06:42:36;96631.25;;;8.10;73.19
75008;BME280;63554;48.940;12.050;2023-04-25T06:46:40;96627.88;;;7.89;73.25
75008;BME280;63554;48.940;12.050;2023-04-25T06:50:43;96627.88;;;7.89;73.02
75008;BME280;63554;48.940;12.050;2023-04-25T06:54:45;96630.56;;;8.15;71.47
75008;BME280;63554;48.940;12.050;2023-04-25T06:58:48;96636.13;;;8.38;70.64
75008;BME280;63554;48.940;12.050;2023-04-25T07:02:53;96631.88;;;8.86;70.36
75008;BME280;63554;48.940;12.050;2023-04-25T07:06:56;96631.22;;;8.90;67.94
75008;BME280;63554;48.940;12.050;2023-04-25T07:10:59;96647.66;;;8.70;68.91
75008;BME280;63554;48.940;12.050;2023-04-25T07:15:02;96628.91;;;8.94;68.55
75008;BME280;63554;48.940;12.050;2023-04-25T07:19:08;96619.44;;;8.85;69.08
75008;BME280;63554;48.940;12.050;2023-04-25T07:23:11;96628.28;;;9.22;66.88
75008;BME280;63554;48.940;12.050;2023-04-25T07:27:13;96632.94;;;9.15;66.49
75008;BME280;63554;48.940;12.050;2023-04-25T07:31:16;96633.09;;;8.90;67.81
75008;BME280;63554;48.940;12.050;2023-04-25T07:35:21;96625.53;;;8.62;69.09
75008;BME280;63554;48.940;12.050;2023-04-25T07:39:23;96629.88;;;8.63;69.76
75008;BME280;63554;48.940;12.050;2023-04-25T07:43:26;96632.94;;;8.48;70.16
75008;BME280;63554;48.940;12.050;2023-04-25T07:47:29;96633.53;;;8.31;70.00
75008;BME280;63554;48.940;12.050;2023-04-25T07:51:33;96638.06;;;8.31;72.15
75008;BME280;63554;48.940;12.050;2023-04-25T07:55:36;96629.03;;;8.25;71.07
75008;BME280;63554;48.940;12.050;2023-04-25T07:59:41;96629.97;;;8.31;70.21
75008;BME280;63554;48.940;12.050;2023-04-25T08:03:44;96628.66;;;8.40;69.37
75008;BME280;63554;48.940;12.050;2023-04-25T08:07:49;96626.91;;;9.01;67.85
75008;BME280;63554;48.940;12.050;2023-04-25T08:11:52;96613.75;;;9.65;66.32
75008;BME280;63554;48.940;12.050;2023-04-25T08:15:55;96616.34;;;9.96;63.89
75008;BME280;63554;48.940;12.050;2023-04-25T08:19:58;96625.34;;;9.54;66.65
75008;BME280;63554;48.940;12.050;2023-04-25T08:24:03;96627.34;;;9.17;66.93
75008;BME280;63554;48.940;12.050;2023-04-25T08:28:06;96623.91;;;9.40;68.26
75008;BME280;63554;48.940;12.050;2023-04-25T08:32:09;96623.03;;;9.69;65.19
75008;BME280;63554;48.940;12.050;2023-04-25T08:36:11;96631.66;;;10.02;64.08
75008;BME280;63554;48.940;12.050;2023-04-25T08:40:23;96630.38;;;10.04;64.01
75008;BME280;63554;48.940;12.050;2023-04-25T08:44:32;96629.41;;;9.99;64.59
75008;BME280;63554;48.940;12.050;2023-04-25T08:48:36;96627.44;;;10.06;64.02
75008;BME280;63554;48.940;12.050;2023-04-25T08:52:43;96641.03;;;9.99;63.09
75008;BME280;63554;48.940;12.050;2023-04-25T08:56:47;96650.63;;;10.37;61.94
75008;BME280;63554;48.940;12.050;2023-04-25T09:00:51;96656.81;;;10.02;63.29
75008;BME280;63554;48.940;12.050;2023-04-25T09:04:54;96661.31;;;10.32;63.93
75008;BME280;63554;48.940;12.050;2023-04-25T09:09:02;96661.81;;;9.75;62.67
75008;BME280;63554;48.940;12.050;2023-04-25T09:13:09;96653.41;;;9.23;64.69
75008;BME280;63554;48.940;12.050;2023-04-25T09:17:13;96678.56;;;9.23;65.22
75008;BME280;63554;48.940;12.050;2023-04-25T09:21:16;96690.38;;;8.92;68.87
75008;BME280;63554;48.940;12.050;2023-04-25T09:25:19;96700.22;;;8.36;75.68
75008;BME280;63554;48.940;12.050;2023-04-25T09:29:29;96693.81;;;8.12;76.45
75008;BME280;63554;48.940;12.050;2023-04-25T09:33:33;96700.53;;;8.03;76.26
75008;BME280;63554;48.940;12.050;2023-04-25T09:37:40;96707.13;;;8.07;76.08
75008;BME280;63554;48.940;12.050;2023-04-25T09:41:42;96708.00;;;8.26;77.14
75008;BME280;63554;48.940;12.050;2023-04-25T09:45:47;96704.44;;;9.13;74.65
75008;BME280;63554;48.940;12.050;2023-04-25T09:49:51;96698.66;;;10.00;74.18
75008;BME280;63554;48.940;12.050;2023-04-25T09:53:54;96702.84;;;10.38;69.96
75008;BME280;63554;48.940;12.050;2023-04-25T09:58:02;96693.22;;;9.58;70.95
75008;BME280;63554;48.940;12.050;2023-04-25T10:02:08;96699.78;;;9.20;73.43
75008;BME280;63554;48.940;12.050;2023-04-25T10:06:16;96707.97;;;8.95;75.20
75008;BME280;63554;48.940;12.050;2023-04-25T10:10:20;96717.69;;;8.96;73.69
75008;BME280;63554;48.940;12.050;2023-04-25T10:14:27;96716.34;;;9.05;73.20
75008;BME280;63554;48.940;12.050;2023-04-25T10:18:33;96724.13;;;9.32;69.24
75008;BME280;63554;48.940;12.050;2023-04-25T10:22:37;96715.53;;;9.53;68.70
75008;BME280;63554;48.940;12.050;2023-04-25T10:26:41;96713.34;;;9.62;66.56
75008;BME280;63554;48.940;12.050;2023-04-25T10:30:57;96708.06;;;9.67;65.95
75008;BME280;63554;48.940;12.050;2023-04-25T10:35:12;96712.28;;;9.63;65.73
75008;BME280;63554;48.940;12.050;2023-04-25T10:39:21;96706.75;;;10.00;63.91
75008;BME280;63554;48.940;12.050;2023-04-25T10:43:36;96714.88;;;9.69;65.20
75008;BME280;63554;48.940;12.050;2023-04-25T10:47:44;96703.56;;;9.30;65.93
75008;BME280;63554;48.940;12.050;2023-04-25T10:51:48;96706.66;;;9.34;66.70
75008;BME280;63554;48.940;12.050;2023-04-25T10:55:55;96721.00;;;9.16;66.88
75008;BME280;63554;48.940;12.050;2023-04-25T10:59:59;96715.63;;;9.46;67.60
75008;BME280;63554;48.940;12.050;2023-04-25T11:04:02;96710.34;;;10.83;63.27
75008;BME280;63554;48.940;12.050;2023-04-25T11:08:11;96719.38;;;11.00;62.08
75008;BME280;63554;48.940;12.050;2023-04-25T11:12:15;96721.91;;;11.31;60.96
75008;BME280;63554;48.940;12.050;2023-04-25T11:16:19;96710.50;;;11.86;59.24
75008;BME280;63554;48.940;12.050;2023-04-25T11:20:28;96709.06;;;11.66;56.59
75008;BME280;63554;48.940;12.050;2023-04-25T11:24:34;96711.84;;;11.72;57.58
75008;BME280;63554;48.940;12.050;2023-04-25T11:28:37;96709.31;;;11.65;55.86
75008;BME280;63554;48.940;12.050;2023-04-25T11:32:40;96710.81;;;11.73;53.45
75008;BME280;63554;48.940;12.050;2023-04-25T11:36:44;96706.84;;;11.63;52.52
75008;BME280;63554;48.940;12.050;2023-04-25T11:40:51;96716.94;;;11.97;52.41
75008;BME280;63554;48.940;12.050;2023-04-25T11:44:54;96709.94;;;11.84;53.08
75008;BME280;63554;48.940;12.050;2023-04-25T11:48:57;96702.91;;;11.71;50.86
75008;BME280;63554;48.940;12.050;2023-04-25T11:53:00;96706.41;;;11.55;51.67
75008;BME280;63554;48.940;12.050;2023-04-25T11:57:04;96705.47;;;11.49;51.02
75008;BME280;63554;48.940;12.050;2023-04-25T12:01:07;96710.88;;;11.78;50.31
75008;BME280;63554;48.940;12.050;2023-04-25T12:05:10;96709.72;;;12.70;49.55
75008;BME280;63554;48.940;12.050;2023-04-25T12:09:33;96706.13;;;13.25;46.51
75008;BME280;63554;48.940;12.050;2023-04-25T12:13:37;96712.91;;;12.84;48.30
75008;BME280;63554;48.940;12.050;2023-04-25T12:17:40;96709.31;;;11.94;49.15
75008;BME280;63554;48.940;12.050;2023-04-25T12:21:44;96716.47;;;12.68;47.74
75008;BME280;63554;48.940;12.050;2023-04-25T12:25:58;96714.66;;;13.12;45.24
75008;BME280;63554;48.940;12.050;2023-04-25T12:30:02;96716.91;;;13.20;45.36
75008;BME280;63554;48.940;12.050;2023-04-25T12:34:06;96711.03;;;13.29;44.71
75008;BME280;63554;48.940;12.050;2023-04-25T12:38:09;96713.88;;;13.34;46.37
75008;BME280;63554;48.940;12.050;2023-04-25T12:42:12;96733.34;;;12.53;47.44
75008;BME280;63554;48.940;12.050;2023-04-25T12:46:16;96740.56;;;11.56;45.98
75008;BME280;63554;48.940;12.050;2023-04-25T12:50:18;96731.75;;;11.08;48.71
75008;BME280;63554;48.940;12.050;2023-04-25T12:54:21;96743.63;;;11.07;49.73
75008;BME280;63554;48.940;12.050;2023-04-25T12:58:24;96741.03;;;11.12;49.74
75008;BME280;63554;48.940;12.050;2023-04-25T13:02:28;96734.88;;;11.28;49.19
75008;BME280;63554;48.940;12.050;2023-04-25T13:06:31;96742.50;;;11.43;48.60
75008;BME280;63554;48.940;12.050;2023-04-25T13:10:34;96736.84;;;11.45;47.21
75008;BME280;63554;48.940;12.050;2023-04-25T13:14:37;96750.09;;;11.18;47.64
75008;BME280;63554;48.940;12.050;2023-04-25T13:18:41;96740.31;;;11.17;48.08
75008;BME280;63554;48.940;12.050;2023-04-25T13:22:44;96747.75;;;11.10;49.49
75008;BME280;63554;48.940;12.050;2023-04-25T13:26:47;96751.38;;;11.15;49.36
75008;BME280;63554;48.940;12.050;2023-04-25T13:30:49;96750.22;;;10.87;49.63
75008;BME280;63554;48.940;12.050;2023-04-25T13:34:54;96752.84;;;10.71;50.04
75008;BME280;63554;48.940;12.050;2023-04-25T13:38:57;96759.06;;;10.59;50.42
75008;BME280;63554;48.940;12.050;2023-04-25T13:43:01;96767.75;;;10.49;50.68
75008;BME280;63554;48.940;12.050;2023-04-25T13:47:03;96773.06;;;10.56;51.79
75008;BME280;63554;48.940;12.050;2023-04-25T13:51:07;96784.00;;;10.61;52.17
75008;BME280;63554;48.940;12.050;2023-04-25T13:55:10;96773.56;;;10.77;52.51
75008;BME280;63554;48.940;12.050;2023-04-25T13:59:13;96777.19;;;10.94;51.50
75008;BME280;63554;48.940;12.050;2023-04-25T14:03:16;96766.41;;;11.35;51.24
75008;BME280;63554;48.940;12.050;2023-04-25T14:07:20;96777.56;;;11.50;51.33
75008;BME280;63554;48.940;12.050;2023-04-25T14:11:23;96770.66;;;11.31;51.70
75008;BME280;63554;48.940;12.050;2023-04-25T14:15:26;96782.69;;;11.75;51.01
75008;BME280;63554;48.940;12.050;2023-04-25T14:19:29;96779.50;;;11.38;50.75
75008;BME280;63554;48.940;12.050;2023-04-25T14:23:33;96782.47;;;11.13;52.46
75008;BME280;63554;48.940;12.050;2023-04-25T14:27:36;96784.16;;;10.90;52.94
75008;BME280;63554;48.940;12.050;2023-04-25T14:31:39;96783.19;;;10.96;52.41
75008;BME280;63554;48.940;12.050;2023-04-25T14:35:42;96798.72;;;11.01;51.05
75008;BME280;63554;48.940;12.050;2023-04-25T14:39:46;96795.19;;;11.00;49.50
75008;BME280;63554;48.940;12.050;2023-04-25T14:43:49;96798.13;;;10.99;50.71
75008;BME280;63554;48.940;12.050;2023-04-25T14:47:52;96808.84;;;10.82;49.59
75008;BME280;63554;48.940;12.050;2023-04-25T14:51:56;96803.97;;;10.48;50.24
75008;BME280;63554;48.940;12.050;2023-04-25T14:56:00;96809.47;;;10.30;51.64
75008;BME280;63554;48.940;12.050;2023-04-25T15:00:04;96822.16;;;10.29;51.70
75008;BME280;63554;48.940;12.050;2023-04-25T15:04:10;96824.94;;;10.23;51.30
75008;BME280;63554;48.940;12.050;2023-04-25T15:08:14;96831.47;;;10.34;51.63
75008;BME280;63554;48.940;12.050;2023-04-25T15:12:18;96828.44;;;10.42;48.25
75008;BME280;63554;48.940;12.050;2023-04-25T15:16:21;96835.22;;;10.33;49.04
75008;BME280;63554;48.940;12.050;2023-04-25T15:20:24;96833.13;;;10.35;49.94
75008;BME280;63554;48.940;12.050;2023-04-25T15:24:27;96836.81;;;10.52;48.88
75008;BME280;63554;48.940;12.050;2023-04-25T15:28:31;96844.00;;;10.70;48.63
75008;BME280;63554;48.940;12.050;2023-04-25T15:32:35;96847.69;;;11.23;48.50
75008;BME280;63554;48.940;12.050;2023-04-25T15:36:37;96852.63;;;10.79;48.70
75008;BME280;63554;48.940;12.050;2023-04-25T15:40:40;96851.97;;;10.41;48.10
75008;BME280;63554;48.940;12.050;2023-04-25T15:44:44;96860.44;;;10.45;50.98
75008;BME280;63554;48.940;12.050;2023-04-25T15:48:46;96863.94;;;10.34;49.54
75008;BME280;63554;48.940;12.050;2023-04-25T15:52:50;96868.97;;;10.30;49.65
75008;BME280;63554;48.940;12.050;2023-04-25T15:56:52;96877.38;;;10.22;49.67
75008;BME280;63554;48.940;12.050;2023-04-25T16:00:56;96879.28;;;10.21;50.25
75008;BME280;63554;48.940;12.050;2023-04-25T16:04:59;96885.41;;;10.28;50.10
75008;BME280;63554;48.940;12.050;2023-04-25T16:09:02;96888.81;;;10.24;50.19
75008;BME280;63554;48.940;12.050;2023-04-25T16:13:06;96891.94;;;10.21;51.36
75008;BME280;63554;48.940;12.050;2023-04-25T16:17:10;96893.47;;;10.17;52.02
75008;BME280;63554;48.940;12.050;2023-04-25T16:21:13;96899.84;;;10.41;50.98
75008;BME280;63554;48.940;12.050;2023-04-25T16:25:17;96897.69;;;10.73;48.77
75008;BME280;63554;48.940;12.050;2023-04-25T16:29:22;96904.47;;;11.06;48.37
75008;BME280;63554;48.940;12.050;2023-04-25T16:33:26;96901.59;;;10.89;49.34
75008;BME280;63554;48.940;12.050;2023-04-25T16:37:29;96897.81;;;10.66;49.54
75008;BME280;63554;48.940;12.050;2023-04-25T16:41:32;96913.91;;;10.31;49.92
75008;BME280;63554;48.940;12.050;2023-04-25T16:45:35;96915.03;;;10.23;49.57
75008;BME280;63554;48.940;12.050;2023-04-25T16:49:39;96921.31;;;10.17;50.61
75008;BME280;63554;48.940;12.050;2023-04-25T16:53:43;96919.25;;;10.01;51.31
75008;BME280;63554;48.940;12.050;2023-04-25T16:57:47;96931.19;;;9.93;51.71
75008;BME280;63554;48.940;12.050;2023-04-25T17:01:49;96935.19;;;9.90;52.62
75008;BME280;63554;48.940;12.050;2023-04-25T17:05:54;96935.41;;;9.70;52.25
75008;BME280;63554;48.940;12.050;2023-04-25T17:09:58;96946.31;;;9.82;52.66
75008;BME280;63554;48.940;12.050;2023-04-25T17:14:01;96948.34;;;10.17;51.91
75008;BME280;63554;48.940;12.050;2023-04-25T17:18:03;96953.34;;;10.02;52.46
75008;BME280;63554;48.940;12.050;2023-04-25T17:22:08;96959.19;;;10.36;51.47
75008;BME280;63554;48.940;12.050;2023-04-25T17:26:11;96954.16;;;10.21;53.07
75008;BME280;63554;48.940;12.050;2023-04-25T17:30:13;96966.94;;;10.32;54.14
75008;BME280;63554;48.940;12.050;2023-04-25T17:34:16;96979.22;;;10.46;52.03
75008;BME280;63554;48.940;12.050;2023-04-25T17:38:20;96971.81;;;10.42;51.81
75008;BME280;63554;48.940;12.050;2023-04-25T17:42:23;96984.94;;;10.01;51.88
75008;BME280;63554;48.940;12.050;2023-04-25T17:46:25;96984.25;;;9.69;52.62
75008;BME280;63554;48.940;12.050;2023-04-25T17:50:30;96997.84;;;9.37;53.47
75008;BME280;63554;48.940;12.050;2023-04-25T17:54:34;97001.19;;;9.07;54.68
75008;BME280;63554;48.940;12.050;2023-04-25T17:58:37;97009.16;;;8.96;55.20
75008;BME280;63554;48.940;12.050;2023-04-25T18:02:39;97018.97;;;8.90;55.49
75008;BME280;63554;48.940;12.050;2023-04-25T18:06:42;97021.09;;;8.81;56.00
75008;BME280;63554;48.940;12.050;2023-04-25T18:10:46;97029.03;;;8.69;56.41
75008;BME280;63554;48.940;12.050;2023-04-25T18:14:49;97024.31;;;8.58;57.23
75008;BME280;63554;48.940;12.050;2023-04-25T18:18:52;97043.25;;;8.51;58.04
75008;BME280;63554;48.940;12.050;2023-04-25T18:22:55;97043.50;;;8.43;59.32
75008;BME280;63554;48.940;12.050;2023-04-25T18:26:59;97051.13;;;8.40;59.99
75008;BME280;63554;48.940;12.050;2023-04-25T18:31:03;97063.59;;;8.34;60.35
75008;BME280;63554;48.940;12.050;2023-04-25T18:35:06;97070.66;;;8.28;61.12
75008;BME280;63554;48.940;12.050;2023-04-25T18:39:10;97083.56;;;8.20;61.07
75008;BME280;63554;48.940;12.050;2023-04-25T18:43:24;97093.31;;;8.14;61.60
75008;BME280;63554;48.940;12.050;2023-04-25T18:47:27;97098.09;;;8.05;62.29
75008;BME280;63554;48.940;12.050;2023-04-25T18:51:30;97114.88;;;8.01;62.72
75008;BME280;63554;48.940;12.050;2023-04-25T18:55:32;97115.53;;;7.96;61.10
75008;BME280;63554;48.940;12.050;2023-04-25T18:59:36;97120.91;;;7.89;61.56
75008;BME280;63554;48.940;12.050;2023-04-25T19:03:39;97132.53;;;7.90;62.64
75008;BME280;63554;48.940;12.050;2023-04-25T19:07:42;97133.16;;;7.92;62.82
75008;BME280;63554;48.940;12.050;2023-04-25T19:11:45;97141.63;;;7.96;63.63
75008;BME280;63554;48.940;12.050;2023-04-25T19:15:49;97138.09;;;7.95;63.47
75008;BME280;63554;48.940;12.050;2023-04-25T19:19:52;97137.06;;;7.89;63.21
75008;BME280;63554;48.940;12.050;2023-04-25T19:23:55;97133.75;;;7.87;63.85
75008;BME280;63554;48.940;12.050;2023-04-25T19:27:57;97141.84;;;7.81;63.69
75008;BME280;63554;48.940;12.050;2023-04-25T19:32:02;97153.66;;;7.73;63.75
75008;BME280;63554;48.940;12.050;2023-04-25T19:36:05;97153.66;;;7.66;64.54
75008;BME280;63554;48.940;12.050;2023-04-25T19:40:09;97159.03;;;7.60;65.40
75008;BME280;63554;48.940;12.050;2023-04-25T19:44:12;97159.00;;;7.46;64.14
75008;BME280;63554;48.940;12.050;2023-04-25T19:48:16;97163.16;;;7.36;64.47
75008;BME280;63554;48.940;12.050;2023-04-25T19:52:19;97178.66;;;7.33;66.51
75008;BME280;63554;48.940;12.050;2023-04-25T19:56:22;97171.63;;;7.32;66.12
75008;BME280;63554;48.940;12.050;2023-04-25T20:00:25;97169.97;;;7.31;66.14
75008;BME280;63554;48.940;12.050;2023-04-25T20:04:29;97177.63;;;7.28;66.93
75008;BME280;63554;48.940;12.050;2023-04-25T20:08:33;97183.19;;;7.20;66.83
75008;BME280;63554;48.940;12.050;2023-04-25T20:12:37;97181.69;;;7.10;66.74
75008;BME280;63554;48.940;12.050;2023-04-25T20:16:40;97175.47;;;7.03;66.78
75008;BME280;63554;48.940;12.050;2023-04-25T20:20:45;97184.78;;;7.01;67.36
75008;BME280;63554;48.940;12.050;2023-04-25T20:24:47;97187.44;;;6.94;68.20
75008;BME280;63554;48.940;12.050;2023-04-25T20:28:50;97189.28;;;6.93;68.95
75008;BME280;63554;48.940;12.050;2023-04-25T20:32:53;97203.53;;;6.87;69.52
75008;BME280;63554;48.940;12.050;2023-04-25T20:36:58;97197.09;;;6.82;69.89
75008;BME280;63554;48.940;12.050;2023-04-25T20:41:03;97200.59;;;6.76;70.29
75008;BME280;63554;48.940;12.050;2023-04-25T20:45:06;97192.41;;;6.56;69.74
75008;BME280;63554;48.940;12.050;2023-04-25T20:49:13;97195.47;;;6.46;70.05
75008;BME280;63554;48.940;12.050;2023-04-25T20:53:17;97193.03;;;6.51;70.45
75008;BME280;63554;48.940;12.050;2023-04-25T20:57:20;97182.69;;;6.54;70.35
75008;BME280;63554;48.940;12.050;2023-04-25T21:01:23;97190.81;;;6.61;69.82
75008;BME280;63554;48.940;12.050;2023-04-25T21:05:26;97183.38;;;6.63;69.99
75008;BME280;63554;48.940;12.050;2023-04-25T21:09:30;97202.19;;;6.63;70.95
75008;BME280;63554;48.940;12.050;2023-04-25T21:13:33;97200.72;;;6.61;71.56
75008;BME280;63554;48.940;12.050;2023-04-25T21:17:35;97201.13;;;6.58;70.33
75008;BME280;63554;48.940;12.050;2023-04-25T21:21:39;97204.19;;;6.54;70.59
75008;BME280;63554;48.940;12.050;2023-04-25T21:25:43;97204.59;;;6.51;70.51